This is the latest recevied weather packets stored in our database for station/object DC4AT. If no packets are shown the sender has not sent any weather packets the latest 10 day(s).
| Time | Temp. | Humidity | Pressure | Rain* | Wind** | Luminosity | Snow |
|---|---|---|---|---|---|---|---|
| 1777412035 | 6.67° C | 60% | 1026 hPa | 0 mm | - | 0 W/m² | - |
| 1777407835 | 7.78° C | 58% | 1025.6 hPa | 0 mm | - | 0 W/m² | - |
| 1777406635 | 8.33° C | 56% | 1025.5 hPa | 0 mm | - | 0 W/m² | - |
| 1777406035 | 8.33° C | 55% | 1025.4 hPa | 0 mm | - | 0 W/m² | - |
| 1777403035 | 10.56° C | 47% | 1025.2 hPa | 0 mm | - | 0 W/m² | - |
| 1777392836 | 14.44° C | 35% | 1023.8 hPa | 0 mm | - | 95 W/m² | - |
| 1777392236 | 14.44° C | 36% | 1023.8 hPa | 0 mm | - | 74 W/m² | - |
| 1777391636 | 14.44° C | 36% | 1023.9 hPa | 0 mm | - | 355 W/m² | - |
| 1777391036 | 14.44° C | 37% | 1023.7 hPa | 0 mm | - | 376 W/m² | - |
| 1777390436 | 14.44° C | 38% | 1023.7 hPa | 0 mm | - | 49 W/m² | - |
| 1777389236 | 15° C | 38% | 1023.7 hPa | 0 mm | - | 438 W/m² | - |
| 1777388036 | 15° C | 38% | 1023.7 hPa | 0 mm | - | 483 W/m² | - |
| 1777387436 | 15° C | 38% | 1023.8 hPa | 0 mm | - | 504 W/m² | - |
| 1777385636 | 15° C | 42% | 1023.8 hPa | 0 mm | - | 561 W/m² | - |
| 1777385036 | 15° C | 42% | 1023.9 hPa | 0 mm | - | 577 W/m² | - |
| 1777381436 | 14.44° C | 42% | 1024.1 hPa | 0 mm | - | 649 W/m² | - |
| 1777377836 | 14.44° C | 45% | 1023.9 hPa | 0 mm | - | 687 W/m² | - |
| 1777372436 | 15° C | 46% | 1023.7 hPa | 0 mm | - | 657 W/m² | - |
| 1777371836 | 14.44° C | 49% | 1023.8 hPa | 0 mm | - | 631 W/m² | - |
| 1777371236 | 14.44° C | 51% | 1023.7 hPa | 0 mm | - | 677 W/m² | - |
| 1777370636 | 13.89° C | 49% | 1023.7 hPa | 0 mm | - | 649 W/m² | - |
| 1777368236 | 13.33° C | 57% | 1024.1 hPa | 0 mm | - | 645 W/m² | - |
| 1777366437 | 12.22° C | 62% | 1024.2 hPa | 0 mm | - | 443 W/m² | - |
| 1777365237 | 11.11° C | 65% | 1024.3 hPa | 0 mm | - | 476 W/m² | - |
| 1777364637 | 11.11° C | 66% | 1024.2 hPa | 0 mm | - | 390 W/m² | - |
* Rain latest hour (hover to see other rain measurements)
** Current wind speed in m/s (hover to see current wind gust speed)